sensor_id;sensor_type;location;lat;lon;timestamp;temperature;humidity
59301;DHT22;45073;52.740;6.784;2024-03-08T00:01:15;3.60;99.90
59301;DHT22;45073;52.740;6.784;2024-03-08T00:03:42;3.60;99.90
59301;DHT22;45073;52.740;6.784;2024-03-08T00:06:07;3.60;99.90
59301;DHT22;45073;52.740;6.784;2024-03-08T00:08:33;3.60;99.90
59301;DHT22;45073;52.740;6.784;2024-03-08T00:10:59;3.60;99.90
59301;DHT22;45073;52.740;6.784;2024-03-08T00:13:24;3.50;99.90
59301;DHT22;45073;52.740;6.784;2024-03-08T00:15:50;3.50;99.90
59301;DHT22;45073;52.740;6.784;2024-03-08T00:18:16;3.50;99.90
59301;DHT22;45073;52.740;6.784;2024-03-08T00:20:42;3.50;99.90
59301;DHT22;45073;52.740;6.784;2024-03-08T00:23:09;3.50;99.90
59301;DHT22;45073;52.740;6.784;2024-03-08T00:25:36;3.50;99.90
59301;DHT22;45073;52.740;6.784;2024-03-08T00:28:02;3.50;99.90
59301;DHT22;45073;52.740;6.784;2024-03-08T00:30:27;3.40;99.90
59301;DHT22;45073;52.740;6.784;2024-03-08T00:32:53;3.40;99.90
59301;DHT22;45073;52.740;6.784;2024-03-08T00:35:19;3.40;99.90
59301;DHT22;45073;52.740;6.784;2024-03-08T00:37:44;3.40;99.90
59301;DHT22;45073;52.740;6.784;2024-03-08T00:40:13;3.40;99.90
59301;DHT22;45073;52.740;6.784;2024-03-08T00:42:38;3.40;99.90
59301;DHT22;45073;52.740;6.784;2024-03-08T00:45:06;3.40;99.90
59301;DHT22;45073;52.740;6.784;2024-03-08T00:47:33;3.30;99.90
59301;DHT22;45073;52.740;6.784;2024-03-08T00:49:58;3.30;99.90
59301;DHT22;45073;52.740;6.784;2024-03-08T00:52:24;3.30;99.90
59301;DHT22;45073;52.740;6.784;2024-03-08T00:54:50;3.30;99.90
59301;DHT22;45073;52.740;6.784;2024-03-08T00:57:15;3.30;99.90
59301;DHT22;45073;52.740;6.784;2024-03-08T00:59:41;3.30;99.90
59301;DHT22;45073;52.740;6.784;2024-03-08T01:02:07;3.30;99.90
59301;DHT22;45073;52.740;6.784;2024-03-08T01:04:34;3.30;99.90
59301;DHT22;45073;52.740;6.784;2024-03-08T01:07:00;3.30;99.90
59301;DHT22;45073;52.740;6.784;2024-03-08T01:09:26;3.30;99.90
59301;DHT22;45073;52.740;6.784;2024-03-08T01:11:53;3.20;99.90
59301;DHT22;45073;52.740;6.784;2024-03-08T01:14:20;3.20;99.90
59301;DHT22;45073;52.740;6.784;2024-03-08T01:16:48;3.20;99.90
59301;DHT22;45073;52.740;6.784;2024-03-08T01:19:14;3.20;99.90
59301;DHT22;45073;52.740;6.784;2024-03-08T01:21:41;3.20;99.90
59301;DHT22;45073;52.740;6.784;2024-03-08T01:24:07;3.20;99.90
59301;DHT22;45073;52.740;6.784;2024-03-08T01:26:32;3.20;99.90
59301;DHT22;45073;52.740;6.784;2024-03-08T01:29:00;3.10;99.90
59301;DHT22;45073;52.740;6.784;2024-03-08T01:31:26;3.10;99.90
59301;DHT22;45073;52.740;6.784;2024-03-08T01:33:51;3.10;99.90
59301;DHT22;45073;52.740;6.784;2024-03-08T01:36:17;3.10;99.90
59301;DHT22;45073;52.740;6.784;2024-03-08T01:38:44;3.10;99.90
59301;DHT22;45073;52.740;6.784;2024-03-08T01:41:10;3.10;99.90
59301;DHT22;45073;52.740;6.784;2024-03-08T01:43:38;3.00;99.90
59301;DHT22;45073;52.740;6.784;2024-03-08T01:46:05;3.00;99.90
59301;DHT22;45073;52.740;6.784;2024-03-08T01:48:31;3.00;99.90
59301;DHT22;45073;52.740;6.784;2024-03-08T01:50:57;3.00;99.90
59301;DHT22;45073;52.740;6.784;2024-03-08T01:53:27;3.00;99.90
59301;DHT22;45073;52.740;6.784;2024-03-08T01:55:56;3.00;99.90
59301;DHT22;45073;52.740;6.784;2024-03-08T01:58:23;3.00;99.90
59301;DHT22;45073;52.740;6.784;2024-03-08T02:00:49;3.00;99.90
59301;DHT22;45073;52.740;6.784;2024-03-08T02:03:16;2.90;99.90
59301;DHT22;45073;52.740;6.784;2024-03-08T02:05:41;2.90;99.90
59301;DHT22;45073;52.740;6.784;2024-03-08T02:08:08;2.90;99.90
59301;DHT22;45073;52.740;6.784;2024-03-08T02:10:38;2.90;99.90
59301;DHT22;45073;52.740;6.784;2024-03-08T02:13:04;2.90;99.90
59301;DHT22;45073;52.740;6.784;2024-03-08T02:15:56;2.90;99.90
59301;DHT22;45073;52.740;6.784;2024-03-08T02:18:23;2.90;99.90
59301;DHT22;45073;52.740;6.784;2024-03-08T02:20:53;2.80;99.90
59301;DHT22;45073;52.740;6.784;2024-03-08T02:23:20;2.80;99.90
59301;DHT22;45073;52.740;6.784;2024-03-08T02:25:46;2.80;99.90
59301;DHT22;45073;52.740;6.784;2024-03-08T02:28:12;2.80;99.90
59301;DHT22;45073;52.740;6.784;2024-03-08T02:30:39;2.80;99.90
59301;DHT22;45073;52.740;6.784;2024-03-08T02:33:05;2.70;99.90
59301;DHT22;45073;52.740;6.784;2024-03-08T02:35:34;2.70;99.90
59301;DHT22;45073;52.740;6.784;2024-03-08T02:38:01;2.70;99.90
59301;DHT22;45073;52.740;6.784;2024-03-08T02:40:27;2.70;99.90
59301;DHT22;45073;52.740;6.784;2024-03-08T02:42:52;2.70;99.90
59301;DHT22;45073;52.740;6.784;2024-03-08T02:45:18;2.70;99.90
59301;DHT22;45073;52.740;6.784;2024-03-08T02:47:44;2.70;99.90
59301;DHT22;45073;52.740;6.784;2024-03-08T02:50:10;2.60;99.90
59301;DHT22;45073;52.740;6.784;2024-03-08T02:52:35;2.70;99.90
59301;DHT22;45073;52.740;6.784;2024-03-08T02:55:04;2.60;99.90
59301;DHT22;45073;52.740;6.784;2024-03-08T02:57:34;2.60;99.90
59301;DHT22;45073;52.740;6.784;2024-03-08T02:59:59;2.60;99.90
59301;DHT22;45073;52.740;6.784;2024-03-08T03:02:25;2.60;99.90
59301;DHT22;45073;52.740;6.784;2024-03-08T03:04:52;2.60;99.90
59301;DHT22;45073;52.740;6.784;2024-03-08T03:07:18;2.60;99.90
59301;DHT22;45073;52.740;6.784;2024-03-08T03:09:43;2.60;99.90
59301;DHT22;45073;52.740;6.784;2024-03-08T03:12:09;2.50;99.90
59301;DHT22;45073;52.740;6.784;2024-03-08T03:14:38;2.50;99.90
59301;DHT22;45073;52.740;6.784;2024-03-08T03:17:04;2.50;99.90
59301;DHT22;45073;52.740;6.784;2024-03-08T03:19:30;2.50;99.90
59301;DHT22;45073;52.740;6.784;2024-03-08T03:21:56;2.50;99.90
59301;DHT22;45073;52.740;6.784;2024-03-08T03:24:22;2.40;99.90
59301;DHT22;45073;52.740;6.784;2024-03-08T03:26:49;2.40;99.90
59301;DHT22;45073;52.740;6.784;2024-03-08T03:29:15;2.40;99.90
59301;DHT22;45073;52.740;6.784;2024-03-08T03:31:42;2.40;99.90
59301;DHT22;45073;52.740;6.784;2024-03-08T03:34:12;2.40;99.90
59301;DHT22;45073;52.740;6.784;2024-03-08T03:36:38;2.40;99.90
59301;DHT22;45073;52.740;6.784;2024-03-08T03:39:08;2.40;99.90
59301;DHT22;45073;52.740;6.784;2024-03-08T03:41:41;2.40;99.90
59301;DHT22;45073;52.740;6.784;2024-03-08T03:44:07;2.40;99.90
59301;DHT22;45073;52.740;6.784;2024-03-08T03:46:33;2.40;99.90
59301;DHT22;45073;52.740;6.784;2024-03-08T03:48:59;2.40;99.90
59301;DHT22;45073;52.740;6.784;2024-03-08T03:51:25;2.40;99.90
59301;DHT22;45073;52.740;6.784;2024-03-08T03:53:51;2.40;99.90
59301;DHT22;45073;52.740;6.784;2024-03-08T03:56:18;2.40;99.90
59301;DHT22;45073;52.740;6.784;2024-03-08T03:58:44;2.40;99.90
59301;DHT22;45073;52.740;6.784;2024-03-08T04:01:09;2.30;99.90
59301;DHT22;45073;52.740;6.784;2024-03-08T04:03:35;2.30;99.90
59301;DHT22;45073;52.740;6.784;2024-03-08T04:06:03;2.30;99.90
59301;DHT22;45073;52.740;6.784;2024-03-08T04:08:30;2.30;99.90
59301;DHT22;45073;52.740;6.784;2024-03-08T04:10:56;2.30;99.90
59301;DHT22;45073;52.740;6.784;2024-03-08T04:13:22;2.30;99.90
59301;DHT22;45073;52.740;6.784;2024-03-08T04:15:48;2.30;99.90
59301;DHT22;45073;52.740;6.784;2024-03-08T04:18:14;2.30;99.90
59301;DHT22;45073;52.740;6.784;2024-03-08T04:20:39;2.30;99.90
59301;DHT22;45073;52.740;6.784;2024-03-08T04:23:06;2.30;99.90
59301;DHT22;45073;52.740;6.784;2024-03-08T04:25:31;2.30;99.90
59301;DHT22;45073;52.740;6.784;2024-03-08T04:27:57;2.30;99.90
59301;DHT22;45073;52.740;6.784;2024-03-08T04:30:23;2.30;99.90
59301;DHT22;45073;52.740;6.784;2024-03-08T04:32:49;2.30;99.90
59301;DHT22;45073;52.740;6.784;2024-03-08T04:35:15;2.30;99.90
59301;DHT22;45073;52.740;6.784;2024-03-08T04:37:41;2.30;99.90
59301;DHT22;45073;52.740;6.784;2024-03-08T04:40:07;2.30;99.90
59301;DHT22;45073;52.740;6.784;2024-03-08T04:42:33;2.30;99.90
59301;DHT22;45073;52.740;6.784;2024-03-08T04:45:00;2.30;99.90
59301;DHT22;45073;52.740;6.784;2024-03-08T04:47:25;2.20;99.90
59301;DHT22;45073;52.740;6.784;2024-03-08T04:49:51;2.20;99.90
59301;DHT22;45073;52.740;6.784;2024-03-08T04:52:17;2.20;99.90
59301;DHT22;45073;52.740;6.784;2024-03-08T04:54:43;2.20;99.90
59301;DHT22;45073;52.740;6.784;2024-03-08T04:57:10;2.20;99.90
59301;DHT22;45073;52.740;6.784;2024-03-08T04:59:36;2.20;99.90
59301;DHT22;45073;52.740;6.784;2024-03-08T05:02:02;2.20;99.90
59301;DHT22;45073;52.740;6.784;2024-03-08T05:04:27;2.20;99.90
59301;DHT22;45073;52.740;6.784;2024-03-08T05:06:54;2.20;99.90
59301;DHT22;45073;52.740;6.784;2024-03-08T05:09:20;2.20;99.90
59301;DHT22;45073;52.740;6.784;2024-03-08T05:11:46;2.20;99.90
59301;DHT22;45073;52.740;6.784;2024-03-08T05:14:13;2.20;99.90
59301;DHT22;45073;52.740;6.784;2024-03-08T05:16:45;2.10;99.90
59301;DHT22;45073;52.740;6.784;2024-03-08T05:19:15;2.10;99.90
59301;DHT22;45073;52.740;6.784;2024-03-08T05:21:44;2.10;99.90
59301;DHT22;45073;52.740;6.784;2024-03-08T05:24:10;2.10;99.90
59301;DHT22;45073;52.740;6.784;2024-03-08T05:26:36;2.10;99.90
59301;DHT22;45073;52.740;6.784;2024-03-08T05:29:03;2.00;99.90
59301;DHT22;45073;52.740;6.784;2024-03-08T05:31:30;2.10;99.90
59301;DHT22;45073;52.740;6.784;2024-03-08T05:33:56;2.00;99.90
59301;DHT22;45073;52.740;6.784;2024-03-08T05:36:22;2.00;99.90
59301;DHT22;45073;52.740;6.784;2024-03-08T05:38:47;2.00;99.90
59301;DHT22;45073;52.740;6.784;2024-03-08T05:41:16;2.00;99.90
59301;DHT22;45073;52.740;6.784;2024-03-08T05:43:41;1.90;99.90
59301;DHT22;45073;52.740;6.784;2024-03-08T05:46:07;1.90;99.90
59301;DHT22;45073;52.740;6.784;2024-03-08T05:48:33;1.90;99.90
59301;DHT22;45073;52.740;6.784;2024-03-08T05:51:00;1.90;99.90
59301;DHT22;45073;52.740;6.784;2024-03-08T05:53:27;1.90;99.90
59301;DHT22;45073;52.740;6.784;2024-03-08T05:55:53;1.90;99.90
59301;DHT22;45073;52.740;6.784;2024-03-08T05:58:19;1.90;99.90
59301;DHT22;45073;52.740;6.784;2024-03-08T06:00:45;1.80;99.90
59301;DHT22;45073;52.740;6.784;2024-03-08T06:03:11;1.80;99.90
59301;DHT22;45073;52.740;6.784;2024-03-08T06:05:37;1.80;99.90
59301;DHT22;45073;52.740;6.784;2024-03-08T06:08:03;1.80;99.90
59301;DHT22;45073;52.740;6.784;2024-03-08T06:10:30;1.80;99.90
59301;DHT22;45073;52.740;6.784;2024-03-08T06:12:55;1.80;99.90
59301;DHT22;45073;52.740;6.784;2024-03-08T06:15:21;1.80;99.90
59301;DHT22;45073;52.740;6.784;2024-03-08T06:17:46;1.80;99.90
59301;DHT22;45073;52.740;6.784;2024-03-08T06:20:13;1.80;99.90
59301;DHT22;45073;52.740;6.784;2024-03-08T06:22:42;1.80;99.90
59301;DHT22;45073;52.740;6.784;2024-03-08T06:25:13;1.80;99.90
59301;DHT22;45073;52.740;6.784;2024-03-08T06:27:41;1.80;99.90
59301;DHT22;45073;52.740;6.784;2024-03-08T06:30:08;1.70;99.90
59301;DHT22;45073;52.740;6.784;2024-03-08T06:32:37;1.80;99.90
59301;DHT22;45073;52.740;6.784;2024-03-08T06:35:06;1.80;99.90
59301;DHT22;45073;52.740;6.784;2024-03-08T06:37:33;1.80;99.90
59301;DHT22;45073;52.740;6.784;2024-03-08T06:39:58;1.80;99.90
59301;DHT22;45073;52.740;6.784;2024-03-08T06:42:24;1.80;99.90
59301;DHT22;45073;52.740;6.784;2024-03-08T06:44:50;1.80;99.90
59301;DHT22;45073;52.740;6.784;2024-03-08T06:47:16;1.80;99.90
59301;DHT22;45073;52.740;6.784;2024-03-08T06:49:44;1.80;99.90
59301;DHT22;45073;52.740;6.784;2024-03-08T06:52:11;1.80;99.90
59301;DHT22;45073;52.740;6.784;2024-03-08T06:54:37;1.90;99.90
59301;DHT22;45073;52.740;6.784;2024-03-08T06:57:03;1.80;99.90
59301;DHT22;45073;52.740;6.784;2024-03-08T06:59:29;1.90;99.90
59301;DHT22;45073;52.740;6.784;2024-03-08T07:01:55;1.90;99.90
59301;DHT22;45073;52.740;6.784;2024-03-08T07:04:20;1.90;99.90
59301;DHT22;45073;52.740;6.784;2024-03-08T07:06:47;2.00;99.90
59301;DHT22;45073;52.740;6.784;2024-03-08T07:09:15;2.00;99.90
59301;DHT22;45073;52.740;6.784;2024-03-08T07:11:42;2.00;99.90
59301;DHT22;45073;52.740;6.784;2024-03-08T07:14:08;2.10;99.90
59301;DHT22;45073;52.740;6.784;2024-03-08T07:16:34;2.10;99.90
59301;DHT22;45073;52.740;6.784;2024-03-08T07:19:03;2.20;99.90
59301;DHT22;45073;52.740;6.784;2024-03-08T07:21:30;2.20;99.90
59301;DHT22;45073;52.740;6.784;2024-03-08T07:23:56;2.30;99.90
59301;DHT22;45073;52.740;6.784;2024-03-08T07:26:25;2.30;99.90
59301;DHT22;45073;52.740;6.784;2024-03-08T07:28:50;2.40;99.90
59301;DHT22;45073;52.740;6.784;2024-03-08T07:31:16;2.40;99.90
59301;DHT22;45073;52.740;6.784;2024-03-08T07:33:41;2.50;99.90
59301;DHT22;45073;52.740;6.784;2024-03-08T07:36:07;2.50;99.90
59301;DHT22;45073;52.740;6.784;2024-03-08T07:38:33;2.60;99.90
59301;DHT22;45073;52.740;6.784;2024-03-08T07:41:00;2.60;99.90
59301;DHT22;45073;52.740;6.784;2024-03-08T07:43:26;2.70;99.90
59301;DHT22;45073;52.740;6.784;2024-03-08T07:45:51;2.80;99.90
59301;DHT22;45073;52.740;6.784;2024-03-08T07:48:18;2.90;99.90
59301;DHT22;45073;52.740;6.784;2024-03-08T07:50:44;2.90;99.90
59301;DHT22;45073;52.740;6.784;2024-03-08T07:53:09;3.00;99.90
59301;DHT22;45073;52.740;6.784;2024-03-08T07:55:35;3.10;99.90
59301;DHT22;45073;52.740;6.784;2024-03-08T07:58:04;3.10;99.90
59301;DHT22;45073;52.740;6.784;2024-03-08T08:00:30;3.20;99.90
59301;DHT22;45073;52.740;6.784;2024-03-08T08:02:57;3.20;99.90
59301;DHT22;45073;52.740;6.784;2024-03-08T08:05:22;3.30;99.90
59301;DHT22;45073;52.740;6.784;2024-03-08T08:07:48;3.30;99.90
59301;DHT22;45073;52.740;6.784;2024-03-08T08:10:15;3.40;99.90
59301;DHT22;45073;52.740;6.784;2024-03-08T08:12:47;3.50;99.90
59301;DHT22;45073;52.740;6.784;2024-03-08T08:15:14;3.50;99.90
59301;DHT22;45073;52.740;6.784;2024-03-08T08:17:44;3.60;99.90
59301;DHT22;45073;52.740;6.784;2024-03-08T08:20:11;3.70;99.90
59301;DHT22;45073;52.740;6.784;2024-03-08T08:22:41;3.70;99.90
59301;DHT22;45073;52.740;6.784;2024-03-08T08:25:11;3.80;99.90
59301;DHT22;45073;52.740;6.784;2024-03-08T08:27:38;3.90;99.90
59301;DHT22;45073;52.740;6.784;2024-03-08T08:30:10;3.90;99.90
59301;DHT22;45073;52.740;6.784;2024-03-08T08:32:37;4.00;99.90
59301;DHT22;45073;52.740;6.784;2024-03-08T08:35:03;4.10;99.90
59301;DHT22;45073;52.740;6.784;2024-03-08T08:37:31;4.20;99.90
59301;DHT22;45073;52.740;6.784;2024-03-08T08:39:57;4.20;99.90
59301;DHT22;45073;52.740;6.784;2024-03-08T08:42:23;4.30;99.90
59301;DHT22;45073;52.740;6.784;2024-03-08T08:44:49;4.40;99.90
59301;DHT22;45073;52.740;6.784;2024-03-08T08:47:16;4.50;99.90
59301;DHT22;45073;52.740;6.784;2024-03-08T08:49:45;4.50;99.90
59301;DHT22;45073;52.740;6.784;2024-03-08T08:52:15;4.60;99.90
59301;DHT22;45073;52.740;6.784;2024-03-08T08:54:42;4.70;99.90
59301;DHT22;45073;52.740;6.784;2024-03-08T08:57:08;4.70;99.90
59301;DHT22;45073;52.740;6.784;2024-03-08T08:59:34;4.80;99.90
59301;DHT22;45073;52.740;6.784;2024-03-08T09:02:06;4.90;99.90
59301;DHT22;45073;52.740;6.784;2024-03-08T09:04:32;5.00;99.90
59301;DHT22;45073;52.740;6.784;2024-03-08T09:06:57;5.10;99.90
59301;DHT22;45073;52.740;6.784;2024-03-08T09:09:23;5.20;99.90
59301;DHT22;45073;52.740;6.784;2024-03-08T09:11:51;5.30;99.90
59301;DHT22;45073;52.740;6.784;2024-03-08T09:14:16;5.30;99.90
59301;DHT22;45073;52.740;6.784;2024-03-08T09:16:42;5.40;99.90
59301;DHT22;45073;52.740;6.784;2024-03-08T09:19:08;5.50;99.90
59301;DHT22;45073;52.740;6.784;2024-03-08T09:21:36;5.60;99.90
59301;DHT22;45073;52.740;6.784;2024-03-08T09:24:02;5.70;99.90
59301;DHT22;45073;52.740;6.784;2024-03-08T09:26:27;5.70;99.90
59301;DHT22;45073;52.740;6.784;2024-03-08T09:28:53;5.80;99.90
59301;DHT22;45073;52.740;6.784;2024-03-08T09:31:22;5.90;99.90
59301;DHT22;45073;52.740;6.784;2024-03-08T09:33:47;5.90;99.90
59301;DHT22;45073;52.740;6.784;2024-03-08T09:36:13;6.00;99.90
59301;DHT22;45073;52.740;6.784;2024-03-08T09:38:39;6.10;99.90
59301;DHT22;45073;52.740;6.784;2024-03-08T09:41:06;6.20;99.90
59301;DHT22;45073;52.740;6.784;2024-03-08T09:43:31;6.30;99.90
59301;DHT22;45073;52.740;6.784;2024-03-08T09:45:58;6.40;99.90
59301;DHT22;45073;52.740;6.784;2024-03-08T09:48:25;6.50;99.90
59301;DHT22;45073;52.740;6.784;2024-03-08T09:50:51;6.60;99.90
59301;DHT22;45073;52.740;6.784;2024-03-08T09:53:17;6.70;99.90
59301;DHT22;45073;52.740;6.784;2024-03-08T09:55:43;6.70;99.90
59301;DHT22;45073;52.740;6.784;2024-03-08T09:58:12;6.80;99.90
59301;DHT22;45073;52.740;6.784;2024-03-08T10:00:53;6.80;99.90
59301;DHT22;45073;52.740;6.784;2024-03-08T10:03:19;6.90;99.90
59301;DHT22;45073;52.740;6.784;2024-03-08T10:05:45;7.00;99.90
59301;DHT22;45073;52.740;6.784;2024-03-08T10:08:12;7.00;99.90
59301;DHT22;45073;52.740;6.784;2024-03-08T10:10:38;7.10;99.90
59301;DHT22;45073;52.740;6.784;2024-03-08T10:13:08;7.10;99.90
59301;DHT22;45073;52.740;6.784;2024-03-08T10:15:34;7.30;99.90
59301;DHT22;45073;52.740;6.784;2024-03-08T10:18:00;7.40;99.90
59301;DHT22;45073;52.740;6.784;2024-03-08T10:20:28;7.50;99.90
59301;DHT22;45073;52.740;6.784;2024-03-08T10:23:05;7.60;99.90
59301;DHT22;45073;52.740;6.784;2024-03-08T10:25:32;7.70;99.90
59301;DHT22;45073;52.740;6.784;2024-03-08T10:27:58;7.70;99.90
59301;DHT22;45073;52.740;6.784;2024-03-08T10:30:24;7.80;99.90
59301;DHT22;45073;52.740;6.784;2024-03-08T10:32:49;8.00;99.90
59301;DHT22;45073;52.740;6.784;2024-03-08T10:35:15;8.10;99.90
59301;DHT22;45073;52.740;6.784;2024-03-08T10:37:50;8.20;99.90
59301;DHT22;45073;52.740;6.784;2024-03-08T10:40:25;8.30;99.90
59301;DHT22;45073;52.740;6.784;2024-03-08T10:42:56;8.40;99.90
59301;DHT22;45073;52.740;6.784;2024-03-08T10:48:03;8.60;99.70
59301;DHT22;45073;52.740;6.784;2024-03-08T10:50:30;8.70;99.50
59301;DHT22;45073;52.740;6.784;2024-03-08T10:53:00;8.90;99.40
59301;DHT22;45073;52.740;6.784;2024-03-08T10:55:28;8.90;99.40
59301;DHT22;45073;52.740;6.784;2024-03-08T10:57:53;9.10;98.40
59301;DHT22;45073;52.740;6.784;2024-03-08T11:00:20;9.20;99.00
59301;DHT22;45073;52.740;6.784;2024-03-08T11:02:53;9.20;96.90
59301;DHT22;45073;52.740;6.784;2024-03-08T11:05:51;9.40;97.70
59301;DHT22;45073;52.740;6.784;2024-03-08T11:08:18;9.50;94.90
59301;DHT22;45073;52.740;6.784;2024-03-08T11:10:51;9.60;97.70
59301;DHT22;45073;52.740;6.784;2024-03-08T11:13:37;9.70;96.70
59301;DHT22;45073;52.740;6.784;2024-03-08T11:18:59;10.00;93.60
59301;DHT22;45073;52.740;6.784;2024-03-08T11:21:30;10.00;94.40
59301;DHT22;45073;52.740;6.784;2024-03-08T11:24:10;10.20;94.30
59301;DHT22;45073;52.740;6.784;2024-03-08T11:26:37;10.40;94.50
59301;DHT22;45073;52.740;6.784;2024-03-08T11:32:17;10.60;91.20
59301;DHT22;45073;52.740;6.784;2024-03-08T11:34:48;10.80;90.80
59301;DHT22;45073;52.740;6.784;2024-03-08T11:37:18;10.90;92.50
59301;DHT22;45073;52.740;6.784;2024-03-08T11:39:48;11.00;88.80
59301;DHT22;45073;52.740;6.784;2024-03-08T11:42:15;11.10;87.70
59301;DHT22;45073;52.740;6.784;2024-03-08T11:44:43;11.20;88.70
59301;DHT22;45073;52.740;6.784;2024-03-08T11:47:10;11.40;90.00
59301;DHT22;45073;52.740;6.784;2024-03-08T11:49:40;11.50;89.30
59301;DHT22;45073;52.740;6.784;2024-03-08T11:52:13;11.50;87.60
59301;DHT22;45073;52.740;6.784;2024-03-08T11:54:52;11.60;85.90
59301;DHT22;45073;52.740;6.784;2024-03-08T11:57:22;11.70;85.30
59301;DHT22;45073;52.740;6.784;2024-03-08T11:59:53;11.80;81.30
59301;DHT22;45073;52.740;6.784;2024-03-08T12:02:18;12.00;87.50
59301;DHT22;45073;52.740;6.784;2024-03-08T12:04:47;12.20;84.70
59301;DHT22;45073;52.740;6.784;2024-03-08T12:07:12;12.30;81.60
59301;DHT22;45073;52.740;6.784;2024-03-08T12:09:40;12.30;85.10
59301;DHT22;45073;52.740;6.784;2024-03-08T12:12:07;12.50;85.20
59301;DHT22;45073;52.740;6.784;2024-03-08T12:14:33;12.50;84.30
59301;DHT22;45073;52.740;6.784;2024-03-08T12:16:59;12.60;83.10
59301;DHT22;45073;52.740;6.784;2024-03-08T12:19:27;12.70;83.60
59301;DHT22;45073;52.740;6.784;2024-03-08T12:21:54;12.90;82.40
59301;DHT22;45073;52.740;6.784;2024-03-08T12:24:20;13.00;81.10
59301;DHT22;45073;52.740;6.784;2024-03-08T12:26:47;13.30;77.30
59301;DHT22;45073;52.740;6.784;2024-03-08T12:29:21;13.40;78.20
59301;DHT22;45073;52.740;6.784;2024-03-08T12:32:00;13.50;76.20
59301;DHT22;45073;52.740;6.784;2024-03-08T12:34:30;13.50;76.10
59301;DHT22;45073;52.740;6.784;2024-03-08T12:36:58;13.70;77.00
59301;DHT22;45073;52.740;6.784;2024-03-08T12:39:24;13.80;76.70
59301;DHT22;45073;52.740;6.784;2024-03-08T12:41:56;13.80;76.90
59301;DHT22;45073;52.740;6.784;2024-03-08T12:44:25;14.00;75.10
59301;DHT22;45073;52.740;6.784;2024-03-08T12:46:51;14.20;73.70
59301;DHT22;45073;52.740;6.784;2024-03-08T12:49:19;14.30;72.60
59301;DHT22;45073;52.740;6.784;2024-03-08T12:51:47;14.50;71.30
59301;DHT22;45073;52.740;6.784;2024-03-08T12:54:13;14.50;70.00
59301;DHT22;45073;52.740;6.784;2024-03-08T12:56:39;14.80;72.30
59301;DHT22;45073;52.740;6.784;2024-03-08T12:59:06;14.90;71.40
59301;DHT22;45073;52.740;6.784;2024-03-08T13:01:33;15.10;70.90
59301;DHT22;45073;52.740;6.784;2024-03-08T13:03:59;15.30;68.20
59301;DHT22;45073;52.740;6.784;2024-03-08T13:06:28;15.50;68.20
59301;DHT22;45073;52.740;6.784;2024-03-08T13:08:56;15.60;67.80
59301;DHT22;45073;52.740;6.784;2024-03-08T13:11:24;15.90;68.00
59301;DHT22;45073;52.740;6.784;2024-03-08T13:13:50;16.00;68.00
59301;DHT22;45073;52.740;6.784;2024-03-08T13:16:16;16.00;65.60
59301;DHT22;45073;52.740;6.784;2024-03-08T13:18:43;16.40;66.70
59301;DHT22;45073;52.740;6.784;2024-03-08T13:21:09;16.60;63.70
59301;DHT22;45073;52.740;6.784;2024-03-08T13:23:37;17.00;63.70
59301;DHT22;45073;52.740;6.784;2024-03-08T13:26:09;17.70;61.50
59301;DHT22;45073;52.740;6.784;2024-03-08T13:28:46;18.90;59.00
59301;DHT22;45073;52.740;6.784;2024-03-08T13:31:14;20.00;59.10
59301;DHT22;45073;52.740;6.784;2024-03-08T13:33:40;20.90;57.90
59301;DHT22;45073;52.740;6.784;2024-03-08T13:36:10;21.90;55.50
59301;DHT22;45073;52.740;6.784;2024-03-08T13:38:47;22.60;52.90
59301;DHT22;45073;52.740;6.784;2024-03-08T13:41:16;23.10;52.00
59301;DHT22;45073;52.740;6.784;2024-03-08T13:43:43;23.80;51.00
59301;DHT22;45073;52.740;6.784;2024-03-08T13:46:10;24.30;50.10
59301;DHT22;45073;52.740;6.784;2024-03-08T13:48:36;24.80;49.40
59301;DHT22;45073;52.740;6.784;2024-03-08T13:51:07;25.20;48.40
59301;DHT22;45073;52.740;6.784;2024-03-08T13:53:33;25.60;47.90
59301;DHT22;45073;52.740;6.784;2024-03-08T13:56:03;25.80;46.50
59301;DHT22;45073;52.740;6.784;2024-03-08T13:58:29;26.20;45.60
59301;DHT22;45073;52.740;6.784;2024-03-08T14:00:55;26.40;45.00
59301;DHT22;45073;52.740;6.784;2024-03-08T14:03:21;26.60;44.50
59301;DHT22;45073;52.740;6.784;2024-03-08T14:05:47;26.70;44.10
59301;DHT22;45073;52.740;6.784;2024-03-08T14:08:12;26.30;43.30
59301;DHT22;45073;52.740;6.784;2024-03-08T14:10:40;26.10;43.50
59301;DHT22;45073;52.740;6.784;2024-03-08T14:13:07;25.90;43.20
59301;DHT22;45073;52.740;6.784;2024-03-08T14:15:36;25.60;43.00
59301;DHT22;45073;52.740;6.784;2024-03-08T14:18:07;25.00;42.90
59301;DHT22;45073;52.740;6.784;2024-03-08T14:20:32;24.50;43.90
59301;DHT22;45073;52.740;6.784;2024-03-08T14:22:58;24.20;44.10
59301;DHT22;45073;52.740;6.784;2024-03-08T14:25:24;24.20;43.70
59301;DHT22;45073;52.740;6.784;2024-03-08T14:27:51;24.00;43.70
59301;DHT22;45073;52.740;6.784;2024-03-08T14:30:19;23.50;43.10
59301;DHT22;45073;52.740;6.784;2024-03-08T14:33:07;23.20;44.50
59301;DHT22;45073;52.740;6.784;2024-03-08T14:35:37;22.70;44.30
59301;DHT22;45073;52.740;6.784;2024-03-08T14:38:02;22.30;45.40
59301;DHT22;45073;52.740;6.784;2024-03-08T14:40:28;22.20;45.10
59301;DHT22;45073;52.740;6.784;2024-03-08T14:42:56;22.40;45.20
59301;DHT22;45073;52.740;6.784;2024-03-08T14:45:22;22.60;44.90
59301;DHT22;45073;52.740;6.784;2024-03-08T14:47:50;22.90;45.10
59301;DHT22;45073;52.740;6.784;2024-03-08T14:50:20;23.50;44.40
59301;DHT22;45073;52.740;6.784;2024-03-08T14:52:46;23.80;44.20
59301;DHT22;45073;52.740;6.784;2024-03-08T14:55:18;24.00;43.50
59301;DHT22;45073;52.740;6.784;2024-03-08T14:57:50;24.30;43.00
59301;DHT22;45073;52.740;6.784;2024-03-08T15:00:18;24.30;42.80
59301;DHT22;45073;52.740;6.784;2024-03-08T15:02:59;24.20;43.00
59301;DHT22;45073;52.740;6.784;2024-03-08T15:05:25;24.00;42.60
59301;DHT22;45073;52.740;6.784;2024-03-08T15:07:57;23.80;42.90
59301;DHT22;45073;52.740;6.784;2024-03-08T15:10:24;23.60;43.20
59301;DHT22;45073;52.740;6.784;2024-03-08T15:12:51;24.00;43.60
59301;DHT22;45073;52.740;6.784;2024-03-08T15:15:21;24.50;42.30
59301;DHT22;45073;52.740;6.784;2024-03-08T15:17:50;24.80;41.90
59301;DHT22;45073;52.740;6.784;2024-03-08T15:20:16;25.10;41.60
59301;DHT22;45073;52.740;6.784;2024-03-08T15:22:49;25.40;41.10
59301;DHT22;45073;52.740;6.784;2024-03-08T15:25:15;25.50;41.30
59301;DHT22;45073;52.740;6.784;2024-03-08T15:27:49;25.50;40.90
59301;DHT22;45073;52.740;6.784;2024-03-08T15:30:15;25.30;40.30
59301;DHT22;45073;52.740;6.784;2024-03-08T15:32:45;25.30;40.60
59301;DHT22;45073;52.740;6.784;2024-03-08T15:35:13;25.20;40.30
59301;DHT22;45073;52.740;6.784;2024-03-08T15:37:45;25.20;40.50
59301;DHT22;45073;52.740;6.784;2024-03-08T15:40:12;24.90;40.20
59301;DHT22;45073;52.740;6.784;2024-03-08T15:42:55;24.80;40.70
59301;DHT22;45073;52.740;6.784;2024-03-08T15:45:21;24.10;40.60
59301;DHT22;45073;52.740;6.784;2024-03-08T15:47:49;23.10;41.90
59301;DHT22;45073;52.740;6.784;2024-03-08T15:50:15;22.20;42.80
59301;DHT22;45073;52.740;6.784;2024-03-08T15:52:45;21.30;43.70